Owings, MD (20736)

7:44 AM EDT on July 28, 2016 (GMT -0400)
Victoria Station | | Change Station

Elev 157 ft 38.69 °N, 76.62 °W | Updated 44 seconds ago

Scattered Clouds
Scattered Clouds
76.7 °F
Feels Like 77 °F
N
0.0
Wind Variable Wind from SSW
Gusts 0.0 mph

Today
High -- | Low -- °F
--% Chance of Precip.
Yesterday
High -- | Low -- °F
Precip. -- in
Pressure 29.91 in
Visibility 10.0 miles
Clouds Scattered Clouds 19000 ft
Heat Index 77 °F
Dew Point 76 °F
Humidity 96%
Rainfall 0.00 in
Snow Depth Not available.
6:04 AM 8:20 PM
Waning Crescent, 33% visible
METAR KADW 281058Z AUTO 00000KT 10SM SCT190 25/24 A2990 RMK AO2 SLP129 T02520240
Pressure 29.91 in
Visibility 10.0 miles
Clouds Scattered Clouds 19000 ft
Heat Index 77 °F
Dew Point 76 °F
Humidity 96%
Rainfall 0.00 in
Snow Depth Not available.
6:04 AM 8:20 PM
Waning Crescent, 33% visible
METAR KADW 281058Z AUTO 00000KT 10SM SCT190 25/24 A2990 RMK AO2 SLP129 T02520240

10-Day Weather Forecast

Almanac

Astronomy

Jul. 28, 2016 Rise Set
Actual Time
Civil Twilight
Nautical Twilight
Astronomical Twilight
Moon
Length of Visible Light
Length of Day
Tomorrow will be .
, % of the Moon is Illuminated

Today's Extremes

State Highs State Lows

Community

WunderPhotos

Upload Photos

1,928,096 photos uploaded!

WunderBlog® & News

Nearby

Air Quality

  Air Quality AQ Index Pollutant
Not available.

Snow Depth

Station Depth Elevation

Earthquake Activity

City Distance Mag. Time & Date
Minimum magnitude displayed is 2.5.

Coastal Water Temperatures

Place Temperature

Stations

Nearby Weather Stations

Station Location Temp. Windchill Dew Point Humidity Wind Precip. Elev Updated Type
                   

Watches & Warnings

There are currently no watches in effect.